createdAt,value
2022-09-02T00:00:02.798Z,2.30
2022-09-02T00:01:02.813Z,2.20
2022-09-02T00:02:02.923Z,2.00
2022-09-02T00:03:02.888Z,2.20
2022-09-02T00:04:02.773Z,1.60
2022-09-02T00:05:02.771Z,1.80
2022-09-02T00:06:02.779Z,1.80
2022-09-02T00:07:02.761Z,1.90
2022-09-02T00:08:02.730Z,2.00
2022-09-02T00:09:02.714Z,2.00
2022-09-02T00:10:02.730Z,2.00
2022-09-02T00:11:02.717Z,1.60
2022-09-02T00:12:02.669Z,1.80
2022-09-02T00:13:02.713Z,1.90
2022-09-02T00:14:02.670Z,1.80
2022-09-02T00:15:02.637Z,1.70
2022-09-02T00:16:02.738Z,1.70
2022-09-02T00:17:03.523Z,1.80
2022-09-02T00:18:04.638Z,2.00
2022-09-02T00:19:03.258Z,1.80
2022-09-02T00:20:03.046Z,1.80
2022-09-02T00:21:04.118Z,1.80
2022-09-02T00:22:04.214Z,1.70
2022-09-02T00:23:04.546Z,1.90
2022-09-02T00:24:04.384Z,1.70
2022-09-02T00:25:03.654Z,2.10
2022-09-02T00:26:05.222Z,1.90
2022-09-02T00:27:04.682Z,1.90
2022-09-02T00:28:02.506Z,1.80
2022-09-02T00:29:02.510Z,1.70
2022-09-02T00:30:02.469Z,1.70
2022-09-02T00:31:02.574Z,1.70
2022-09-02T00:32:02.522Z,1.90
2022-09-02T00:33:02.439Z,1.60
2022-09-02T00:34:04.622Z,1.70
2022-09-02T00:35:04.899Z,1.40
2022-09-02T00:36:05.203Z,1.60
2022-09-02T00:37:03.462Z,1.90
2022-09-02T00:38:04.176Z,1.80
2022-09-02T00:39:05.124Z,1.90
2022-09-02T00:40:02.623Z,2.10
2022-09-02T00:41:02.412Z,2.30
2022-09-02T00:42:02.423Z,2.50
2022-09-02T00:43:02.287Z,2.50
2022-09-02T00:44:02.334Z,2.60
2022-09-02T00:45:02.349Z,2.60
2022-09-02T00:46:02.323Z,2.60
2022-09-02T00:47:02.289Z,2.50
2022-09-02T00:48:02.267Z,2.90
2022-09-02T00:49:02.506Z,2.60
2022-09-02T00:50:02.532Z,3.10
2022-09-02T00:51:02.644Z,3.10
2022-09-02T00:52:02.464Z,2.30
2022-09-02T00:53:02.502Z,2.70
2022-09-02T00:54:02.518Z,3.00
2022-09-02T00:55:02.352Z,2.90
2022-09-02T00:56:02.348Z,3.30
2022-09-02T00:57:02.707Z,4.50
2022-09-02T00:58:02.463Z,4.70
2022-09-02T00:59:02.292Z,4.40
2022-09-02T01:00:02.320Z,5.00
2022-09-02T01:01:02.470Z,4.80
2022-09-02T01:02:02.371Z,4.70
2022-09-02T01:03:02.364Z,4.70
2022-09-02T01:04:06.024Z,4.40
2022-09-02T01:05:03.609Z,4.30
2022-09-02T01:06:07.092Z,4.00
2022-09-02T01:07:06.700Z,4.40
2022-09-02T01:08:05.396Z,4.00
2022-09-02T01:09:06.916Z,4.20
2022-09-02T01:10:10.333Z,4.50
2022-09-02T01:11:06.305Z,4.20
2022-09-02T01:12:05.212Z,4.50
2022-09-02T01:13:07.897Z,4.30
2022-09-02T01:14:07.624Z,4.70
2022-09-02T01:15:09.209Z,4.60
2022-09-02T01:16:06.154Z,4.90
2022-09-02T01:17:07.465Z,4.70
2022-09-02T01:18:07.651Z,4.70
2022-09-02T01:19:06.337Z,4.80
2022-09-02T01:20:06.617Z,4.70
2022-09-02T01:21:08.146Z,4.20
2022-09-02T01:22:07.796Z,3.70
2022-09-02T01:23:07.040Z,3.70
2022-09-02T01:24:08.309Z,3.90
2022-09-02T01:25:08.457Z,3.60
2022-09-02T01:26:04.445Z,3.60
2022-09-02T01:27:06.777Z,3.60
2022-09-02T01:28:04.677Z,3.90
2022-09-02T01:29:09.202Z,3.40
2022-09-02T01:30:07.906Z,3.80
2022-09-02T01:31:09.485Z,3.70
2022-09-02T01:32:08.229Z,3.60
2022-09-02T01:33:07.646Z,4.00
2022-09-02T01:34:08.921Z,3.70
2022-09-02T01:35:08.714Z,3.90
2022-09-02T01:36:04.054Z,3.70
2022-09-02T01:37:06.593Z,4.00
2022-09-02T01:38:04.725Z,4.10
2022-09-02T01:39:08.969Z,4.70
2022-09-02T01:40:05.863Z,4.50
2022-09-02T01:41:07.357Z,4.20
2022-09-02T01:42:06.605Z,4.10
2022-09-02T01:43:07.327Z,4.20
2022-09-02T01:44:07.418Z,3.70
2022-09-02T01:45:06.898Z,4.10
2022-09-02T01:46:09.188Z,3.50
2022-09-02T01:47:07.681Z,3.70
2022-09-02T01:48:07.198Z,3.90
2022-09-02T01:49:05.781Z,3.80
2022-09-02T01:50:07.523Z,3.50
2022-09-02T01:51:07.514Z,3.40
2022-09-02T01:52:06.586Z,3.40
2022-09-02T01:53:07.766Z,3.40
2022-09-02T01:54:08.263Z,3.10
2022-09-02T01:55:06.875Z,2.80
2022-09-02T01:56:06.726Z,2.70
2022-09-02T01:57:07.826Z,2.40
2022-09-02T01:58:07.312Z,2.70
2022-09-02T01:59:06.535Z,3.00
2022-09-02T02:00:06.847Z,2.70
2022-09-02T02:01:03.463Z,2.50
2022-09-02T02:02:06.295Z,2.60
2022-09-02T02:03:07.623Z,2.70
2022-09-02T02:04:08.327Z,2.70
2022-09-02T02:05:09.311Z,2.80
2022-09-02T02:06:08.903Z,3.20
2022-09-02T02:07:06.131Z,3.10
2022-09-02T02:08:06.322Z,3.40
2022-09-02T02:09:06.505Z,3.00
2022-09-02T02:10:05.746Z,3.10
2022-09-02T02:11:05.336Z,3.20
2022-09-02T02:12:03.671Z,2.90
2022-09-02T02:13:27.212Z,3.00
2022-09-02T02:14:01.355Z,2.90
2022-09-02T02:15:01.296Z,3.20
2022-09-02T02:16:01.333Z,3.00
2022-09-02T02:17:01.315Z,3.00
2022-09-02T02:18:01.331Z,3.60
2022-09-02T02:19:01.196Z,3.20
2022-09-02T02:20:01.287Z,3.40
2022-09-02T02:21:01.225Z,3.20
2022-09-02T02:22:01.201Z,2.90
2022-09-02T02:23:01.264Z,2.90
2022-09-02T02:24:01.140Z,3.10
2022-09-02T02:25:01.145Z,3.40
2022-09-02T02:26:01.124Z,3.20
2022-09-02T02:27:01.096Z,3.60
2022-09-02T02:28:02.578Z,3.90
2022-09-02T02:29:01.055Z,3.70
2022-09-02T02:30:01.137Z,3.80
2022-09-02T02:31:01.173Z,4.20
2022-09-02T02:32:01.068Z,4.00
2022-09-02T02:33:01.257Z,4.00
2022-09-02T02:34:01.056Z,3.60
2022-09-02T02:35:01.048Z,4.30
2022-09-02T02:36:01.064Z,4.20
2022-09-02T02:37:01.032Z,4.10
2022-09-02T02:38:03.796Z,4.00
2022-09-02T02:39:01.006Z,3.50
2022-09-02T02:40:00.979Z,3.50
2022-09-02T02:41:00.957Z,3.90
2022-09-02T02:42:00.954Z,3.40
2022-09-02T02:43:00.929Z,3.30
2022-09-02T02:44:00.929Z,3.70
2022-09-02T02:45:00.904Z,3.50
2022-09-02T02:46:00.961Z,3.40
2022-09-02T02:47:01.052Z,3.30
2022-09-02T02:48:00.853Z,3.60
2022-09-02T02:49:00.874Z,3.50
2022-09-02T02:50:00.841Z,3.10
2022-09-02T02:51:00.837Z,3.30
2022-09-02T02:52:00.833Z,3.70
2022-09-02T02:53:00.850Z,3.60
2022-09-02T02:54:00.825Z,4.00
2022-09-02T02:55:00.801Z,3.80
2022-09-02T02:56:00.784Z,3.90
2022-09-02T02:57:00.793Z,4.00
2022-09-02T02:58:00.792Z,4.30
2022-09-02T02:59:00.775Z,4.10
2022-09-02T03:00:00.728Z,3.90
2022-09-02T03:01:01.729Z,3.80
2022-09-02T03:02:00.873Z,3.70
2022-09-02T03:03:00.738Z,3.50
2022-09-02T03:04:00.919Z,3.60
2022-09-02T03:05:00.664Z,3.60
2022-09-02T03:06:00.680Z,3.20
2022-09-02T03:07:00.660Z,3.80
2022-09-02T03:08:00.642Z,3.30
2022-09-02T03:09:00.668Z,3.10
2022-09-02T03:10:00.628Z,3.10
2022-09-02T03:11:00.593Z,3.10
2022-09-02T03:12:00.623Z,3.60
2022-09-02T03:13:00.561Z,3.60
2022-09-02T03:14:00.617Z,3.50
2022-09-02T03:15:00.589Z,3.90
2022-09-02T03:16:00.583Z,3.40
2022-09-02T03:17:00.543Z,3.40
2022-09-02T03:18:00.525Z,3.40
2022-09-02T03:19:00.576Z,3.40
2022-09-02T03:20:00.508Z,3.70
2022-09-02T03:21:00.500Z,3.70
2022-09-02T03:22:00.612Z,3.30
2022-09-02T03:23:00.441Z,3.40
2022-09-02T03:24:00.453Z,2.90
2022-09-02T03:25:00.491Z,2.80
2022-09-02T03:26:00.452Z,2.90
2022-09-02T03:27:00.393Z,3.20
2022-09-02T03:28:00.389Z,3.10
2022-09-02T03:29:00.442Z,2.60
2022-09-02T03:30:00.380Z,3.20
2022-09-02T03:31:00.425Z,3.30
2022-09-02T03:32:00.389Z,3.20
2022-09-02T03:33:03.792Z,3.50
2022-09-02T03:34:01.389Z,3.60
2022-09-02T03:35:00.317Z,3.20
2022-09-02T03:36:00.276Z,3.70
2022-09-02T03:37:00.299Z,3.60
2022-09-02T03:38:00.327Z,3.70
2022-09-02T03:39:00.293Z,3.30
2022-09-02T03:40:00.291Z,3.30
2022-09-02T03:41:00.210Z,3.20
2022-09-02T03:42:00.227Z,3.60
2022-09-02T03:43:00.770Z,3.20
2022-09-02T03:44:00.229Z,3.80
2022-09-02T03:45:00.226Z,3.60
2022-09-02T03:46:00.219Z,3.40
2022-09-02T03:47:00.161Z,3.60
2022-09-02T03:48:00.169Z,4.10
2022-09-02T03:49:00.139Z,3.80
2022-09-02T03:50:00.163Z,3.60
2022-09-02T03:51:00.125Z,3.50
2022-09-02T03:52:00.114Z,3.60
2022-09-02T03:53:00.081Z,3.70
2022-09-02T03:54:00.167Z,3.50
2022-09-02T03:55:00.101Z,3.60
2022-09-02T03:56:00.091Z,3.20
2022-09-02T03:57:00.058Z,3.30
2022-09-02T03:58:00.071Z,3.20
2022-09-02T03:59:00.126Z,3.50
2022-09-02T04:00:00.034Z,2.70
2022-09-02T04:01:00.030Z,2.70
2022-09-02T04:02:00.169Z,2.80
2022-09-02T04:03:00.034Z,2.80
2022-09-02T04:04:00.003Z,2.70
2022-09-02T04:04:59.952Z,2.30
2022-09-02T04:05:59.959Z,2.60
2022-09-02T04:06:59.999Z,2.60
2022-09-02T04:07:59.884Z,2.50
2022-09-02T04:08:59.899Z,2.20
2022-09-02T04:09:59.900Z,2.40
2022-09-02T04:10:59.886Z,2.60
2022-09-02T04:11:59.883Z,2.70
2022-09-02T04:12:59.853Z,2.40
2022-09-02T04:13:59.823Z,2.40
2022-09-02T04:14:59.828Z,2.50
2022-09-02T04:16:01.886Z,2.20
2022-09-02T04:17:00.035Z,2.60
2022-09-02T04:17:59.807Z,2.50
2022-09-02T04:19:00.780Z,2.60
2022-09-02T04:19:59.813Z,2.70
2022-09-02T04:20:59.791Z,2.60
2022-09-02T04:21:59.764Z,2.60
2022-09-02T04:22:59.740Z,2.60
2022-09-02T04:23:59.700Z,2.90
2022-09-02T04:24:59.716Z,2.80
2022-09-02T04:25:59.692Z,2.80
2022-09-02T04:27:04.038Z,2.70
2022-09-02T04:28:00.667Z,3.00
2022-09-02T04:28:59.671Z,3.00
2022-09-02T04:29:59.672Z,2.80
2022-09-02T04:30:59.707Z,2.90
2022-09-02T04:31:59.655Z,2.80
2022-09-02T04:32:59.655Z,2.60
2022-09-02T04:33:59.622Z,2.70
2022-09-02T04:34:59.588Z,2.60
2022-09-02T04:35:59.609Z,2.70
2022-09-02T04:36:59.620Z,2.60
2022-09-02T04:37:59.588Z,2.50
2022-09-02T04:38:59.560Z,2.80
2022-09-02T04:39:59.556Z,2.90
2022-09-02T04:40:59.533Z,2.70
2022-09-02T04:41:59.552Z,2.90
2022-09-02T04:42:59.465Z,2.90
2022-09-02T04:43:59.488Z,3.10
2022-09-02T04:44:59.459Z,3.10
2022-09-02T04:45:59.503Z,2.80
2022-09-02T04:46:59.437Z,3.00
2022-09-02T04:47:59.448Z,2.60
2022-09-02T04:48:59.390Z,2.70
2022-09-02T04:49:59.396Z,2.90
2022-09-02T04:50:59.457Z,2.60
2022-09-02T04:51:59.398Z,2.90
2022-09-02T04:52:59.417Z,2.70
2022-09-02T04:53:59.382Z,2.60
2022-09-02T04:54:59.393Z,2.50
2022-09-02T04:55:59.340Z,2.50
2022-09-02T04:56:59.342Z,2.50
2022-09-02T04:57:59.317Z,2.70
2022-09-02T04:58:59.293Z,2.40
2022-09-02T04:59:59.295Z,2.20
2022-09-02T05:01:00.203Z,2.40
2022-09-02T05:01:59.403Z,2.40
2022-09-02T05:02:59.295Z,2.40
2022-09-02T05:03:59.280Z,2.40
2022-09-02T05:04:59.220Z,2.60
2022-09-02T05:05:59.790Z,2.20
2022-09-02T05:06:59.232Z,2.20
2022-09-02T05:07:59.183Z,2.50
2022-09-02T05:08:59.219Z,2.60
2022-09-02T05:09:59.188Z,2.30
2022-09-02T05:10:59.151Z,2.50
2022-09-02T05:11:59.190Z,2.50
2022-09-02T05:12:59.145Z,2.70
2022-09-02T05:13:59.180Z,2.20
2022-09-02T05:14:59.102Z,2.30
2022-09-02T05:15:59.150Z,2.30
2022-09-02T05:17:01.708Z,2.40
2022-09-02T05:17:59.138Z,2.90
2022-09-02T05:18:59.123Z,2.40
2022-09-02T05:19:59.777Z,2.50
2022-09-02T05:20:59.065Z,2.50
2022-09-02T05:21:59.052Z,2.30
2022-09-02T05:22:59.036Z,2.30
2022-09-02T05:23:58.997Z,2.20
2022-09-02T05:24:59.046Z,2.20
2022-09-02T05:25:59.044Z,2.20
2022-09-02T05:26:58.963Z,2.70
2022-09-02T05:27:58.962Z,2.30
2022-09-02T05:28:58.949Z,2.80
2022-09-02T05:29:58.949Z,3.00
2022-09-02T05:30:58.983Z,3.00
2022-09-02T05:31:58.912Z,3.20
2022-09-02T05:32:58.924Z,3.90
2022-09-02T05:33:58.917Z,4.10
2022-09-02T05:34:58.966Z,4.30
2022-09-02T05:35:58.890Z,4.40
2022-09-02T05:36:58.877Z,4.50
2022-09-02T05:38:00.897Z,4.40
2022-09-02T05:39:00.732Z,4.30
2022-09-02T05:39:58.849Z,4.50
2022-09-02T05:40:58.890Z,4.60
2022-09-02T05:41:58.822Z,4.20
2022-09-02T05:42:58.832Z,4.50
2022-09-02T05:44:01.339Z,4.10
2022-09-02T05:44:58.798Z,3.80
2022-09-02T05:45:58.809Z,3.40
2022-09-02T05:46:59.786Z,3.40
2022-09-02T05:47:58.750Z,3.10
2022-09-02T05:48:58.710Z,3.30
2022-09-02T05:49:58.771Z,3.30
2022-09-02T05:50:58.724Z,3.20
2022-09-02T05:51:58.695Z,2.60
2022-09-02T05:52:58.674Z,2.70
2022-09-02T05:53:58.666Z,3.00
2022-09-02T05:54:58.702Z,2.50
2022-09-02T05:55:58.643Z,2.90
2022-09-02T05:56:58.634Z,2.90
2022-09-02T05:57:58.618Z,2.50
2022-09-02T05:58:58.590Z,2.50
2022-09-02T05:59:58.622Z,2.70
2022-09-02T06:00:58.556Z,2.60
2022-09-02T06:01:58.636Z,2.40
2022-09-02T06:02:58.713Z,2.80
2022-09-02T06:03:58.548Z,2.80
2022-09-02T06:04:58.535Z,2.40
2022-09-02T06:06:02.971Z,2.70
2022-09-02T06:06:59.555Z,2.60
2022-09-02T06:07:58.512Z,2.80
2022-09-02T06:08:58.477Z,3.20
2022-09-02T06:09:58.506Z,3.10
2022-09-02T06:10:58.532Z,3.10
2022-09-02T06:11:58.540Z,3.40
2022-09-02T06:12:58.429Z,3.20
2022-09-02T06:13:58.440Z,3.00
2022-09-02T06:14:58.412Z,3.10
2022-09-02T06:15:58.466Z,3.20
2022-09-02T06:16:58.426Z,3.00
2022-09-02T06:17:58.388Z,3.00
2022-09-02T06:18:58.339Z,3.10
2022-09-02T06:19:58.380Z,3.10
2022-09-02T06:20:58.336Z,3.00
2022-09-02T06:21:58.288Z,3.20
2022-09-02T06:22:58.304Z,3.10
2022-09-02T06:23:58.353Z,2.80
2022-09-02T06:24:58.360Z,2.80
2022-09-02T06:25:58.277Z,3.00
2022-09-02T06:26:58.328Z,2.90
2022-09-02T06:27:58.241Z,2.90
2022-09-02T06:28:58.272Z,3.00
2022-09-02T06:29:58.295Z,2.90
2022-09-02T06:30:58.237Z,3.30
2022-09-02T06:31:59.164Z,3.50
2022-09-02T06:32:58.198Z,3.70
2022-09-02T06:33:58.176Z,4.00
2022-09-02T06:34:58.200Z,4.10
2022-09-02T06:35:58.191Z,4.00
2022-09-02T06:36:58.139Z,3.90
2022-09-02T06:37:58.636Z,3.50
2022-09-02T06:38:58.128Z,3.10
2022-09-02T06:39:58.085Z,3.30
2022-09-02T06:40:58.129Z,3.20
2022-09-02T06:41:58.109Z,3.00
2022-09-02T06:42:58.118Z,2.90
2022-09-02T06:43:58.101Z,2.50
2022-09-02T06:44:58.107Z,2.40
2022-09-02T06:45:58.096Z,2.40
2022-09-02T06:46:58.042Z,2.20
2022-09-02T06:47:58.014Z,2.60
2022-09-02T06:48:58.013Z,2.50
2022-09-02T06:49:58.042Z,2.80
2022-09-02T06:50:58.035Z,2.50
2022-09-02T06:51:59.006Z,2.50
2022-09-02T06:52:57.962Z,2.70
2022-09-02T06:53:57.941Z,2.70
2022-09-02T06:54:57.950Z,2.80
2022-09-02T06:55:57.935Z,2.50
2022-09-02T06:56:57.930Z,2.90
2022-09-02T06:57:57.878Z,3.10
2022-09-02T06:58:57.906Z,2.90
2022-09-02T07:00:02.228Z,3.20
2022-09-02T07:00:57.971Z,3.10
2022-09-02T07:01:58.098Z,3.50
2022-09-02T07:02:57.814Z,3.10
2022-09-02T07:03:57.802Z,3.00
2022-09-02T07:04:58.770Z,3.20
2022-09-02T07:05:57.808Z,3.10
2022-09-02T07:06:57.880Z,3.00
2022-09-02T07:07:57.759Z,2.80
2022-09-02T07:08:57.757Z,3.00
2022-09-02T07:09:57.746Z,2.60
2022-09-02T07:10:57.735Z,2.60
2022-09-02T07:12:02.074Z,2.80
2022-09-02T07:12:59.623Z,2.70
2022-09-02T07:13:57.687Z,2.30
2022-09-02T07:14:57.750Z,2.30
2022-09-02T07:15:57.683Z,2.20
2022-09-02T07:16:57.742Z,2.20
2022-09-02T07:17:57.680Z,2.40
2022-09-02T07:18:57.655Z,2.10
2022-09-02T07:19:57.642Z,2.20
2022-09-02T07:20:57.623Z,2.10
2022-09-02T07:21:57.632Z,1.90
2022-09-02T07:22:57.611Z,2.10
2022-09-02T07:23:57.589Z,2.30
2022-09-02T07:24:57.613Z,2.20
2022-09-02T07:25:57.562Z,2.00
2022-09-02T07:26:57.558Z,2.20
2022-09-02T07:27:57.525Z,2.30
2022-09-02T07:28:57.537Z,2.00
2022-09-02T07:29:57.559Z,2.10
2022-09-02T07:30:59.837Z,2.10
2022-09-02T07:31:58.550Z,2.20
2022-09-02T07:32:57.502Z,2.20
2022-09-02T07:33:57.465Z,2.10
2022-09-02T07:34:57.479Z,2.10
2022-09-02T07:35:57.442Z,2.00
2022-09-02T07:37:02.630Z,2.10
2022-09-02T07:37:59.446Z,2.30
2022-09-02T07:38:57.439Z,2.10
2022-09-02T07:39:57.499Z,2.10
2022-09-02T07:40:57.429Z,2.00
2022-09-02T07:41:57.378Z,2.10
2022-09-02T07:43:59.709Z,2.10
2022-09-02T07:44:57.417Z,2.20
2022-09-02T07:45:57.374Z,2.20
2022-09-02T07:46:57.331Z,2.20
2022-09-02T07:47:57.329Z,2.30
2022-09-02T07:48:57.330Z,2.10
2022-09-02T07:50:59.342Z,2.20
2022-09-02T07:51:57.272Z,2.50
2022-09-02T07:52:57.257Z,2.10
2022-09-02T07:53:57.225Z,2.10
2022-09-02T07:54:57.254Z,2.20
2022-09-02T07:55:57.209Z,2.20
2022-09-02T07:56:58.214Z,2.20
2022-09-02T07:57:57.251Z,2.10
2022-09-02T07:58:57.214Z,2.30
2022-09-02T07:59:57.213Z,2.20
2022-09-02T08:00:57.262Z,2.10
2022-09-02T08:01:57.781Z,2.30
2022-09-02T08:02:57.292Z,2.20
2022-09-02T08:03:57.927Z,2.00
2022-09-02T08:04:57.138Z,2.30
2022-09-02T08:05:57.141Z,2.10
2022-09-02T08:06:57.674Z,1.90
2022-09-02T08:07:57.169Z,2.00
2022-09-02T08:08:57.102Z,2.20
2022-09-02T08:09:57.070Z,2.20
2022-09-02T08:10:57.106Z,1.90
2022-09-02T08:11:57.111Z,2.10
2022-09-02T08:12:57.044Z,2.00
2022-09-02T08:13:57.058Z,2.10
2022-09-02T08:14:57.770Z,2.00
2022-09-02T08:15:57.030Z,2.30
2022-09-02T08:16:57.109Z,2.30
2022-09-02T08:17:56.991Z,2.40
2022-09-02T08:18:57.007Z,2.20
2022-09-02T08:19:56.978Z,2.10
2022-09-02T08:20:56.985Z,2.20
2022-09-02T08:21:56.972Z,2.10
2022-09-02T08:23:05.863Z,2.20
2022-09-02T08:23:57.966Z,2.50
2022-09-02T08:24:56.936Z,2.00
2022-09-02T08:25:56.967Z,2.30
2022-09-02T08:26:56.931Z,2.30
2022-09-02T08:27:56.919Z,2.20
2022-09-02T08:28:56.897Z,2.00
2022-09-02T08:29:56.919Z,2.00
2022-09-02T08:30:56.863Z,2.30
2022-09-02T08:31:56.873Z,2.10
2022-09-02T08:32:56.835Z,2.10
2022-09-02T08:33:56.832Z,2.10
2022-09-02T08:34:56.988Z,2.30
2022-09-02T08:35:56.800Z,1.90
2022-09-02T08:36:57.254Z,2.00
2022-09-02T08:37:56.780Z,2.10
2022-09-02T08:38:56.768Z,2.20
2022-09-02T08:39:56.764Z,2.20
2022-09-02T08:40:56.801Z,2.00
2022-09-02T08:41:56.830Z,2.10
2022-09-02T08:42:56.747Z,2.00
2022-09-02T08:43:56.739Z,2.20
2022-09-02T08:44:56.712Z,2.10
2022-09-02T08:45:56.745Z,2.00
2022-09-02T08:46:56.723Z,2.10
2022-09-02T08:47:56.673Z,2.20
2022-09-02T08:48:56.684Z,2.00
2022-09-02T08:49:56.636Z,2.10
2022-09-02T08:50:56.639Z,2.10
2022-09-02T08:51:56.631Z,2.20
2022-09-02T08:52:56.624Z,2.10
2022-09-02T08:53:56.618Z,2.30
2022-09-02T08:54:56.675Z,2.10
2022-09-02T08:55:56.621Z,2.10
2022-09-02T08:56:56.581Z,2.10
2022-09-02T08:57:56.637Z,2.20
2022-09-02T08:58:56.971Z,2.10
2022-09-02T08:59:56.547Z,2.00
2022-09-02T09:00:56.641Z,2.40
2022-09-02T09:01:56.622Z,2.20
2022-09-02T09:02:56.497Z,2.20
2022-09-02T09:03:56.506Z,2.10
2022-09-02T09:04:56.518Z,2.00
2022-09-02T09:05:56.488Z,2.20
2022-09-02T09:06:56.510Z,1.90
2022-09-02T09:07:56.470Z,2.50
2022-09-02T09:08:57.486Z,2.10
2022-09-02T09:09:56.442Z,2.10
2022-09-02T09:10:56.414Z,1.90
2022-09-02T09:11:56.438Z,2.10
2022-09-02T09:12:56.398Z,2.30
2022-09-02T09:13:56.390Z,2.10
2022-09-02T09:14:56.387Z,2.00
2022-09-02T09:15:56.397Z,2.00
2022-09-02T09:16:56.462Z,2.30
2022-09-02T09:17:56.401Z,2.10
2022-09-02T09:18:57.249Z,2.10
2022-09-02T09:19:56.305Z,2.10
2022-09-02T09:20:56.297Z,2.00
2022-09-02T09:21:56.373Z,2.10
2022-09-02T09:22:56.268Z,2.10
2022-09-02T09:23:56.261Z,2.20
2022-09-02T09:24:56.321Z,2.10
2022-09-02T09:25:57.198Z,2.20
2022-09-02T09:26:56.251Z,2.20
2022-09-02T09:27:56.325Z,2.20
2022-09-02T09:28:56.305Z,2.20
2022-09-02T09:29:56.192Z,2.00
2022-09-02T09:30:56.261Z,2.00
2022-09-02T09:31:56.297Z,1.70
2022-09-02T09:32:56.200Z,1.90
2022-09-02T09:33:56.213Z,2.30
2022-09-02T09:34:56.186Z,2.00
2022-09-02T09:35:56.164Z,1.90
2022-09-02T09:36:56.158Z,2.00
2022-09-02T09:37:56.157Z,2.20
2022-09-02T09:38:56.136Z,2.00
2022-09-02T09:39:56.089Z,2.00
2022-09-02T09:40:56.148Z,2.00
2022-09-02T09:41:56.109Z,2.00
2022-09-02T09:42:56.137Z,2.00
2022-09-02T09:43:56.081Z,1.90
2022-09-02T09:44:56.105Z,1.90
2022-09-02T09:45:56.091Z,1.90
2022-09-02T09:46:56.026Z,2.00
2022-09-02T09:47:58.459Z,1.90
2022-09-02T09:48:56.069Z,2.00
2022-09-02T09:49:55.999Z,1.70
2022-09-02T09:50:56.103Z,1.80
2022-09-02T09:51:55.952Z,1.90
2022-09-02T09:52:55.942Z,1.90
2022-09-02T09:53:56.015Z,1.80
2022-09-02T09:54:55.950Z,2.00
2022-09-02T09:55:55.925Z,1.70
2022-09-02T09:56:55.962Z,1.90
2022-09-02T09:57:55.921Z,2.20
2022-09-02T09:58:55.990Z,1.80
2022-09-02T09:59:55.866Z,1.70
2022-09-02T10:00:55.943Z,1.70
2022-09-02T10:01:55.990Z,1.80
2022-09-02T10:02:55.830Z,1.70
2022-09-02T10:03:55.847Z,1.90
2022-09-02T10:04:55.842Z,1.70
2022-09-02T10:05:55.939Z,1.80
2022-09-02T10:06:55.814Z,2.00
2022-09-02T10:07:55.822Z,1.70
2022-09-02T10:08:55.786Z,1.90
2022-09-02T10:09:55.817Z,1.80
2022-09-02T10:10:55.826Z,1.80
2022-09-02T10:11:55.766Z,1.80
2022-09-02T10:12:55.722Z,1.80
2022-09-02T10:13:55.767Z,1.90
2022-09-02T10:14:55.756Z,1.70
2022-09-02T10:15:55.756Z,1.70
2022-09-02T10:16:55.775Z,1.60
2022-09-02T10:17:55.687Z,1.80
2022-09-02T10:18:55.673Z,1.70
2022-09-02T10:19:56.349Z,1.80
2022-09-02T10:21:13.920Z,1.80
2022-09-02T10:21:57.647Z,1.80
2022-09-02T10:22:59.335Z,1.80
2022-09-02T10:23:55.662Z,1.60
2022-09-02T10:24:55.611Z,1.90
2022-09-02T10:25:55.807Z,1.80
2022-09-02T10:26:55.652Z,1.80
2022-09-02T10:27:55.620Z,2.00
2022-09-02T10:28:55.580Z,1.80
2022-09-02T10:29:55.549Z,1.80
2022-09-02T10:30:55.533Z,1.70
2022-09-02T10:31:55.638Z,1.70
2022-09-02T10:32:55.607Z,1.70
2022-09-02T10:33:55.839Z,1.70
2022-09-02T10:34:56.532Z,1.80
2022-09-02T10:35:55.540Z,1.70
2022-09-02T10:36:55.540Z,1.80
2022-09-02T10:37:55.483Z,2.00
2022-09-02T10:38:55.538Z,1.80
2022-09-02T10:39:55.456Z,1.70
2022-09-02T10:40:55.532Z,1.70
2022-09-02T10:41:55.711Z,1.80
2022-09-02T10:42:55.546Z,1.90
2022-09-02T10:43:57.362Z,1.90
2022-09-02T10:44:58.796Z,2.00
2022-09-02T10:45:56.396Z,1.80
2022-09-02T10:46:55.412Z,1.80
2022-09-02T10:47:55.367Z,2.30
2022-09-02T10:48:55.436Z,1.80
2022-09-02T10:49:55.444Z,2.20
2022-09-02T10:50:55.368Z,1.70
2022-09-02T10:51:55.392Z,1.90
2022-09-02T10:52:55.408Z,1.80
2022-09-02T10:53:55.464Z,1.70
2022-09-02T10:54:55.328Z,1.90
2022-09-02T10:55:55.620Z,2.20
2022-09-02T10:56:55.297Z,2.10
2022-09-02T10:57:55.316Z,1.90
2022-09-02T10:58:55.333Z,1.90
2022-09-02T10:59:55.296Z,1.70
2022-09-02T11:00:55.256Z,2.00
2022-09-02T11:01:55.225Z,1.70
2022-09-02T11:02:55.298Z,1.90
2022-09-02T11:03:56.193Z,1.80
2022-09-02T11:04:55.306Z,1.80
2022-09-02T11:05:55.192Z,2.00
2022-09-02T11:07:03.561Z,1.80
2022-09-02T11:07:57.178Z,2.10
2022-09-02T11:08:55.248Z,2.00
2022-09-02T11:09:55.263Z,2.00
2022-09-02T11:10:55.175Z,2.00
2022-09-02T11:11:58.257Z,1.90
2022-09-02T11:12:55.131Z,1.90
2022-09-02T11:13:55.287Z,1.90
2022-09-02T11:14:55.263Z,2.00
2022-09-02T11:15:55.365Z,2.00
2022-09-02T11:16:55.200Z,1.90
2022-09-02T11:17:55.101Z,1.90
2022-09-02T11:18:55.081Z,1.70
2022-09-02T11:19:55.634Z,1.70
2022-09-02T11:20:55.024Z,2.00
2022-09-02T11:21:55.051Z,2.10
2022-09-02T11:22:55.038Z,1.80
2022-09-02T11:23:55.081Z,2.10
2022-09-02T11:24:55.107Z,1.60
2022-09-02T11:25:54.988Z,1.80
2022-09-02T11:26:55.089Z,1.90
2022-09-02T11:27:54.976Z,1.90
2022-09-02T11:28:55.156Z,2.00
2022-09-02T11:29:54.949Z,1.90
2022-09-02T11:30:54.973Z,1.90
2022-09-02T11:31:56.760Z,1.90
2022-09-02T11:32:55.376Z,2.00
2022-09-02T11:33:55.042Z,1.90
2022-09-02T11:35:28.665Z,1.80
2022-09-02T11:35:55.082Z,1.70
2022-09-02T11:36:54.828Z,2.10
2022-09-02T11:37:55.309Z,1.80
2022-09-02T11:38:54.866Z,2.00
2022-09-02T11:40:11.234Z,1.80
2022-09-02T11:41:56.918Z,1.70
2022-09-02T11:42:54.761Z,2.10
2022-09-02T11:44:56.105Z,1.70
2022-09-02T11:45:54.746Z,1.90
2022-09-02T11:46:54.801Z,1.60
2022-09-02T11:47:54.787Z,2.00
2022-09-02T11:48:54.798Z,2.00
2022-09-02T11:49:54.745Z,1.60
2022-09-02T11:50:54.737Z,2.30
2022-09-02T11:51:54.731Z,2.10
2022-09-02T11:52:54.702Z,1.90
2022-09-02T11:53:56.044Z,1.70
2022-09-02T11:54:55.465Z,2.10
2022-09-02T11:55:54.819Z,1.90
2022-09-02T11:56:54.626Z,1.70
2022-09-02T11:57:54.653Z,1.70
2022-09-02T11:58:55.198Z,2.10
2022-09-02T11:59:54.721Z,1.70
2022-09-02T12:00:54.793Z,1.80
2022-09-02T12:01:54.695Z,1.60
2022-09-02T12:02:55.222Z,1.80
2022-09-02T12:04:39.761Z,2.10
2022-09-02T12:05:00.350Z,2.00
2022-09-02T12:05:56.735Z,1.80
2022-09-02T12:06:54.647Z,1.80
2022-09-02T12:07:54.592Z,1.70
2022-09-02T12:08:56.179Z,1.90
2022-09-02T12:09:54.590Z,2.20
2022-09-02T12:10:55.899Z,2.00
2022-09-02T12:11:55.464Z,1.90
2022-09-02T12:12:54.489Z,1.90
2022-09-02T12:13:54.529Z,1.90
2022-09-02T12:14:56.717Z,1.70
2022-09-02T12:15:55.006Z,1.60
2022-09-02T12:16:54.424Z,1.90
2022-09-02T12:17:54.401Z,1.80
2022-09-02T12:18:54.375Z,1.90
2022-09-02T12:19:54.350Z,1.90
2022-09-02T12:20:54.351Z,1.80
2022-09-02T12:21:54.320Z,2.00
2022-09-02T12:22:54.355Z,2.00
2022-09-02T12:23:54.370Z,1.70
2022-09-02T12:24:54.310Z,2.10
2022-09-02T12:25:54.272Z,1.90
2022-09-02T12:26:54.259Z,2.10
2022-09-02T12:27:54.272Z,2.20
2022-09-02T12:28:54.222Z,2.40
2022-09-02T12:29:56.170Z,2.10
2022-09-02T12:30:54.266Z,1.80
2022-09-02T12:31:54.370Z,2.10
2022-09-02T12:32:54.191Z,2.10
2022-09-02T12:33:54.524Z,2.00
2022-09-02T12:34:54.532Z,1.80
2022-09-02T12:35:54.223Z,2.00
2022-09-02T12:36:54.252Z,1.90
2022-09-02T12:37:54.259Z,1.80
2022-09-02T12:38:54.175Z,2.40
2022-09-02T12:39:54.198Z,1.60
2022-09-02T12:40:54.237Z,2.10
2022-09-02T12:41:55.175Z,1.80
2022-09-02T12:42:54.996Z,1.80
2022-09-02T12:43:54.124Z,1.80
2022-09-02T12:44:54.065Z,1.80
2022-09-02T12:45:54.148Z,1.80
2022-09-02T12:46:54.170Z,1.90
2022-09-02T12:47:55.379Z,2.00
2022-09-02T12:48:54.737Z,1.90
2022-09-02T12:49:54.028Z,1.80
2022-09-02T12:50:54.196Z,1.90
2022-09-02T12:51:54.019Z,2.10
2022-09-02T12:52:54.076Z,2.00
2022-09-02T12:53:53.970Z,1.90
2022-09-02T12:54:53.972Z,2.00
2022-09-02T12:55:53.948Z,2.40
2022-09-02T12:56:53.944Z,2.30
2022-09-02T12:57:53.926Z,1.90
2022-09-02T12:58:54.115Z,1.90
2022-09-02T12:59:53.933Z,1.80
2022-09-02T13:00:53.965Z,1.80
2022-09-02T13:01:54.063Z,2.00
2022-09-02T13:02:54.786Z,1.80
2022-09-02T13:03:53.873Z,1.70
2022-09-02T13:04:53.881Z,1.90
2022-09-02T13:05:54.078Z,1.70
2022-09-02T13:06:54.738Z,1.90
2022-09-02T13:07:53.829Z,1.80
2022-09-02T13:08:53.825Z,2.00
2022-09-02T13:09:53.813Z,2.00
2022-09-02T13:10:53.785Z,3.40
2022-09-02T13:11:53.847Z,3.60
2022-09-02T13:12:53.751Z,2.00
2022-09-02T13:13:53.774Z,2.20
2022-09-02T13:14:53.740Z,1.90
2022-09-02T13:15:53.789Z,2.10
2022-09-02T13:16:53.730Z,2.00
2022-09-02T13:17:53.731Z,1.90
2022-09-02T13:18:53.758Z,1.90
2022-09-02T13:19:53.839Z,2.10
2022-09-02T13:20:55.979Z,2.00
2022-09-02T13:21:54.666Z,2.40